sensor_id;sensor_type;location;lat;lon;timestamp;temperature;humidity
8872;DHT22;4472;52.092;9.820;2023-11-21T12:49:42;8.30;99.90
8872;DHT22;4472;52.092;9.820;2023-11-21T12:52:32;8.50;99.90
8872;DHT22;4472;52.092;9.820;2023-11-21T12:55:22;8.60;99.90
8872;DHT22;4472;52.092;9.820;2023-11-21T12:58:12;8.60;99.90
8872;DHT22;4472;52.092;9.820;2023-11-21T13:01:02;8.60;99.90
8872;DHT22;4472;52.092;9.820;2023-11-21T13:06:49;8.60;99.90
8872;DHT22;4472;52.092;9.820;2023-11-21T13:09:38;8.50;99.90
8872;DHT22;4472;52.092;9.820;2023-11-21T13:12:25;8.60;99.90
8872;DHT22;4472;52.092;9.820;2023-11-21T13:15:34;8.40;99.90
8872;DHT22;4472;52.092;9.820;2023-11-21T21:05:20;5.50;99.90
8872;DHT22;4472;52.092;9.820;2023-11-21T21:08:09;5.80;99.90
8872;DHT22;4472;52.092;9.820;2023-11-21T21:10:57;5.50;99.90
8872;DHT22;4472;52.092;9.820;2023-11-21T21:16:32;5.50;99.90
8872;DHT22;4472;52.092;9.820;2023-11-21T21:19:20;5.50;99.90
8872;DHT22;4472;52.092;9.820;2023-11-21T21:22:09;5.50;99.90
8872;DHT22;4472;52.092;9.820;2023-11-21T21:24:57;5.50;99.90
8872;DHT22;4472;52.092;9.820;2023-11-21T21:27:44;5.10;99.90
8872;DHT22;4472;52.092;9.820;2023-11-21T21:30:31;5.40;99.90
8872;DHT22;4472;52.092;9.820;2023-11-21T21:33:19;5.40;99.90
8872;DHT22;4472;52.092;9.820;2023-11-21T21:36:09;5.40;99.90
8872;DHT22;4472;52.092;9.820;2023-11-21T21:38:58;5.30;99.90
8872;DHT22;4472;52.092;9.820;2023-11-21T21:41:46;5.30;99.90
8872;DHT22;4472;52.092;9.820;2023-11-21T21:44:34;5.20;99.90
8872;DHT22;4472;52.092;9.820;2023-11-21T21:47:22;5.40;99.90
8872;DHT22;4472;52.092;9.820;2023-11-21T21:50:10;5.20;99.90
8872;DHT22;4472;52.092;9.820;2023-11-21T21:52:58;5.20;99.90
8872;DHT22;4472;52.092;9.820;2023-11-21T21:55:47;5.30;99.90
8872;DHT22;4472;52.092;9.820;2023-11-21T21:58:37;5.20;99.90
8872;DHT22;4472;52.092;9.820;2023-11-21T22:01:24;5.20;99.90
8872;DHT22;4472;52.092;9.820;2023-11-21T22:04:13;5.20;99.90
8872;DHT22;4472;52.092;9.820;2023-11-21T22:07:01;5.20;99.90
8872;DHT22;4472;52.092;9.820;2023-11-21T22:09:48;5.20;99.90
8872;DHT22;4472;52.092;9.820;2023-11-21T22:12:37;5.20;99.90
8872;DHT22;4472;52.092;9.820;2023-11-21T22:15:25;5.10;99.90
8872;DHT22;4472;52.092;9.820;2023-11-21T22:18:12;5.10;99.90
8872;DHT22;4472;52.092;9.820;2023-11-21T22:21:00;5.10;99.90
8872;DHT22;4472;52.092;9.820;2023-11-21T22:23:47;5.10;99.90
8872;DHT22;4472;52.092;9.820;2023-11-21T22:26:35;5.00;99.90
8872;DHT22;4472;52.092;9.820;2023-11-21T22:29:23;5.00;99.90
8872;DHT22;4472;52.092;9.820;2023-11-21T22:32:12;4.90;99.90
8872;DHT22;4472;52.092;9.820;2023-11-21T22:34:59;5.10;99.90
8872;DHT22;4472;52.092;9.820;2023-11-21T22:37:47;4.80;99.90
8872;DHT22;4472;52.092;9.820;2023-11-21T22:40:34;4.70;99.90
8872;DHT22;4472;52.092;9.820;2023-11-21T22:43:22;4.80;99.90
8872;DHT22;4472;52.092;9.820;2023-11-21T22:46:11;4.90;99.90
8872;DHT22;4472;52.092;9.820;2023-11-21T22:48:59;4.60;99.90
8872;DHT22;4472;52.092;9.820;2023-11-21T22:51:48;4.50;99.90
8872;DHT22;4472;52.092;9.820;2023-11-21T22:54:36;4.40;99.90
8872;DHT22;4472;52.092;9.820;2023-11-21T22:57:24;4.40;99.90
8872;DHT22;4472;52.092;9.820;2023-11-21T23:00:13;4.40;99.90
8872;DHT22;4472;52.092;9.820;2023-11-21T23:03:06;4.30;99.90
8872;DHT22;4472;52.092;9.820;2023-11-21T23:05:54;4.20;99.90
8872;DHT22;4472;52.092;9.820;2023-11-21T23:08:41;4.20;99.90
8872;DHT22;4472;52.092;9.820;2023-11-21T23:11:30;4.10;99.90
8872;DHT22;4472;52.092;9.820;2023-11-21T23:14:17;4.20;99.90
8872;DHT22;4472;52.092;9.820;2023-11-21T23:17:04;4.00;99.90
8872;DHT22;4472;52.092;9.820;2023-11-21T23:19:53;4.00;99.90
8872;DHT22;4472;52.092;9.820;2023-11-21T23:22:41;3.90;99.90
8872;DHT22;4472;52.092;9.820;2023-11-21T23:25:28;3.80;99.90
8872;DHT22;4472;52.092;9.820;2023-11-21T23:28:15;3.80;99.90
8872;DHT22;4472;52.092;9.820;2023-11-21T23:31:05;3.90;99.90
8872;DHT22;4472;52.092;9.820;2023-11-21T23:33:52;3.70;99.90
8872;DHT22;4472;52.092;9.820;2023-11-21T23:42:55;3.70;99.90
8872;DHT22;4472;52.092;9.820;2023-11-21T23:45:42;3.60;99.90
8872;DHT22;4472;52.092;9.820;2023-11-21T23:48:30;3.40;99.90
8872;DHT22;4472;52.092;9.820;2023-11-21T23:51:17;3.40;99.90
8872;DHT22;4472;52.092;9.820;2023-11-21T23:54:04;3.30;99.90
8872;DHT22;4472;52.092;9.820;2023-11-21T23:56:54;3.20;99.90
8872;DHT22;4472;52.092;9.820;2023-11-21T23:59:43;3.10;99.90
